Main page
METAR-TAF:

METAR-TAF

Airports :

Salamanca Airport

Salamanca, Spain

latitude: 40-57N, longitude: 005-30W, elevation: 793 m

Current weather observation

The report was made 39 minutes ago, at 20:30 UTC
Wind 3 kt from the South/Southwest
Temperature 4°C
Humidity 93%
Pressure 1026 hPa
Visibility 10 km or more
no clouds below 1500 m and no cumulonimbus

METAR: LESA 102030Z AUTO 20003KT CAVOK 04/03 Q1026

Time: 22:09 (21:09 UTC)

Forecast

The report was made 4 hours and 9 minutes ago, at 17:00 UTC
Forecast valid from 10 at 18 UTC to 11 at 18 UTC
Wind 5 kt from variable directions
Visibility 10 km or more
no clouds below 1500 m and no cumulonimbus
Temporary
from 11 at 06 UTC to 11 at 12 UTC
Visibility: 3000 m
Broken clouds at a height of 1000 ft
rain, mist

TAF: LESA 101700Z 1018/1118 VRB05KT CAVOK TX09/1115Z TN00/1106Z TEMPO 1106/1112 3000 RA BR BKN010

Weather observations and forecasts of more than 4000 airports (METAR and TAF reports).

The available stations are represented by yellow and red dots on the map.

Hover mouse over dot to see the name of the station.

Then click to see weather observations and forecasts.

To change the map : click on the green buttons with a black cross to zoom in, on the green button with a dash to zoom out, or on the green arrows for adjacent maps.


METAR-TAF: